CheckWX is a tool to help pilots better visualize weather data.  It is not intended as a substitute for an official pre-flight weather briefing.

06:13:07 UTC

KPEZ METAR
Pleasanton Municipal Airport
Pleasanton, Texas, USA
Current

18 mins ago

KPEZ 080555Z AUTO 00000KT 10SM CLR 10/08 A3016 RMK AO2 T01010075 10146 20090 402150039
Observed
Dec-8 @ 05:55 UTC
Visibility
10 SM
Flight Rules
VFR
Cloud Levels
  • Clear skies
Temperature
10°C / 50°F
Dewpoint
C / 46°F
Humidity
88%
Altimeter
30.16" Hg
Pressure
1021.32 hPa
Previous

38 mins ago

KPEZ 080535Z AUTO 00000KT 10SM CLR 10/07 A3016 RMK AO2 T00970073
Observed
Dec-8 @ 05:35 UTC
Visibility
10 SM
Flight Rules
VFR
Cloud Levels
  • Clear skies
Temperature
10°C / 50°F
Dewpoint
C / 45°F
Humidity
82%
Altimeter
30.16" Hg
Pressure
1021.32 hPa
Previous

58 mins ago

KPEZ 080515Z AUTO 00000KT 10SM CLR 10/07 A3017 RMK AO2 T01020072
Observed
Dec-8 @ 05:15 UTC
Visibility
10 SM
Flight Rules
VFR
Cloud Levels
  • Clear skies
Temperature
10°C / 50°F
Dewpoint
C / 45°F
Humidity
82%
Altimeter
30.17" Hg
Pressure
1021.72 hPa